Grand Ruby — 3EIU3 — position and weather

sailwx.info

Track history (hours):
 
Tides and Currents Weather Stations Pressure Air Temp Water Temp Dewpoint Dewpoint Depression Visibility Wind Speed Wind Dir Waves Ship Positions

Grand Ruby

Last reported at 2015-Jul-05 04:33 UTC. Time now 2015-Jul-05 06:02 UTC.
Position N 53°32' E 005°17'.

Length 200 m; draft 9.4 m.

Type: Cargo ship. MMSI: 372399000.

Date/timePositionNaut miles runAvg speedWind from/ knotsBaromVisibWave heightAir tempDewpointWater temp
2015-Jul-05 04:33N 53°32' E 005°17'1515.0
2015-Jul-05 03:34N 53°27' E 004°54'1413.8
2015-Jul-05 02:34N 53°17' E 004°37'1515.0
2015-Jul-05 01:34N 53°04' E 004°26'1515.1
2015-Jul-05 00:34N 52°51' E 004°14'1515.1
2015-Jul-04 23:33N 52°39' E 003°57'1514.8
2015-Jul-04 22:34N 52°28' E 003°42'1514.7
2015-Jul-04 21:33N 52°15' E 003°30'1514.8
2015-Jul-04 20:33N 52°01' E 003°24'1414.3
2015-Jul-04 19:34N 51°49' E 003°12'1616.3
2015-Jul-04 18:34N 51°38' E 002°51'1615.5
2015-Jul-04 17:34N 51°23' E 002°45'1211.7
2015-Jul-04 16:33N 51°25' E 003°03'8 7.6
2015-Jul-04 15:33N 51°20' E 003°13'2 1.9
2015-Jul-04 14:34N 51°18' E 003°14'0 0.0
2015-Jul-04 13:31N 51°18' E 003°14'0 0.0
2015-Jul-04 12:31N 51°18' E 003°14'0 0.0
2015-Jul-04 11:31N 51°18' E 003°14'0 0.0
2015-Jul-04 10:31N 51°18' E 003°14'0 0.0
2015-Jul-04 09:31N 51°18' E 003°14'0 0.0
2015-Jul-04 08:34N 51°18' E 003°14'0 0.0
2015-Jul-04 07:31N 51°18' E 003°14'0 0.0
2015-Jul-04 06:31N 51°18' E 003°14'0 0.0
2015-Jul-04 05:31N 51°18' E 003°14'0 0.0
2015-Jul-04 04:31N 51°18' E 003°14'0 0.0
2015-Jul-04 03:31N 51°18' E 003°14'0 0.0
2015-Jul-04 02:31N 51°18' E 003°14'0 0.0
2015-Jul-04 01:31N 51°18' E 003°14'0 0.0
2015-Jul-04 00:31N 51°18' E 003°14'0 0.0
2015-Jul-03 23:31N 51°18' E 003°14'0 0.0
2015-Jul-03 22:31N 51°18' E 003°14'0 0.0
2015-Jul-03 21:31N 51°18' E 003°14'0 0.0
2015-Jul-03 20:34N 51°18' E 003°14'0 0.0
2015-Jul-03 19:34N 51°18' E 003°14'0 0.0
2015-Jul-03 18:31N 51°18' E 003°14'0 0.0
2015-Jul-03 17:34N 51°18' E 003°14'0 0.0
2015-Jul-03 16:34N 51°18' E 003°14'0 0.0
2015-Jul-03 15:31N 51°18' E 003°14'0 0.0
2015-Jul-03 14:28N 51°18' E 003°14'0 0.0
2015-Jul-03 13:34N 51°18' E 003°14'0 0.0
2015-Jul-03 12:31N 51°18' E 003°14'0 0.0
2015-Jul-03 11:31N 51°18' E 003°14'0 0.0
2015-Jul-03 10:34N 51°18' E 003°14'0 0.0
2015-Jul-03 09:31N 51°18' E 003°14'0 0.0
2015-Jul-03 08:31N 51°18' E 003°14'0 0.0
2015-Jul-03 07:31N 51°18' E 003°14'0 0.0
2015-Jul-03 06:31N 51°18' E 003°14'0 0.0
2015-Jul-03 05:34N 51°18' E 003°14'0 0.0
2015-Jul-03 04:34N 51°18' E 003°14'0 0.0
2015-Jul-03 03:31N 51°18' E 003°14'0 0.0
2015-Jul-03 02:31N 51°18' E 003°14'0 0.0
2015-Jul-03 01:31N 51°18' E 003°14'0 0.0
2015-Jul-03 00:31N 51°18' E 003°14'0 0.0
2015-Jul-02 23:31N 51°18' E 003°14'0 0.0
2015-Jul-02 22:28N 51°18' E 003°14'0 0.0
2015-Jul-02 21:31N 51°18' E 003°14'0 0.0
2015-Jul-02 20:31N 51°18' E 003°14'0 0.0
2015-Jul-02 19:31N 51°18' E 003°14'1 0.6
2015-Jul-02 18:33N 51°19' E 003°14'1 1.3
2015-Jul-02 17:33N 51°20' E 003°13'5 4.6
2015-Jul-02 16:34N 51°24' E 003°08'1515.2
2015-Jul-02 15:34N 51°23' E 002°44'1111.0
2015-Jul-02 14:34N 51°21' E 002°27'1717.0
2015-Jul-02 13:33N 51°13' E 002°03'1919.3
2015-Jul-02 12:33N 51°02' E 001°38'2020.0
2015-Jul-02 11:33N 50°44' E 001°22'2019.7
2015-Jul-02 10:33N 50°30' E 001°00'2118.1
2015-Jul-02 09:23N 50°23' E 000°29'1619.2
2015-Jul-02 08:33N 50°19' E 000°05'5618.6
2015-Jul-02 05:33N 50°12' W 001°22'1514.1
2015-Jul-02 04:31N 50°21' W 001°39'1515.7
2015-Jul-02 03:33N 50°23' W 002°03'1514.7
2015-Jul-02 02:34N 50°23' W 002°26'1514.5
2015-Jul-02 01:33N 50°23' W 002°49'1615.6
2015-Jul-02 00:33N 50°24' W 003°13'8 7.9
2015-Jul-01 23:34N 50°22' W 003°25'1010.2
2015-Jul-01 22:33N 50°13' W 003°30'1312.7
2015-Jul-01 21:33N 50°02' W 003°40'7116.9
2015-Jul-01 17:21N 49°07' W 004°50'5817.7
2015-Jul-01 14:06N 48°27' W 005°52'1018.4
2015-Jul-01 13:33N 48°18' W 005°59'1818.1
2015-Jul-01 12:34N 48°02' W 006°11'2317.3
2015-Jul-01 11:16N 47°42' W 006°27'1316.8
2015-Jul-01 10:30N 47°30' W 006°36'33110.5
2015-Jun-30 03:08N 42°14' W 008°50'2 4.2
2015-Jun-30 02:33N 42°14' W 008°53'6 5.8
2015-Jun-30 01:33N 42°18' W 008°58'10 9.5
2015-Jun-30 00:33N 42°20' W 009°11'1514.9
2015-Jun-29 23:33N 42°20' W 009°31'1716.9
2015-Jun-29 22:33N 42°20' W 009°54'1616.6
2015-Jun-29 21:34N 42°18' W 010°16'1716.5
2015-Jun-29 20:33N 42°15' W 010°38'1616.5
2015-Jun-29 19:33N 42°13' W 011°00'1716.4
2015-Jun-29 18:33N 42°10' W 011°23'1716.7
2015-Jun-29 17:33N 42°08' W 011°45'1616.6
2015-Jun-29 16:33N 42°05' W 012°06'1716.6
2015-Jun-29 15:33N 42°01' W 012°28'1616.4
2015-Jun-29 14:33N 41°58' W 012°50'5016.6
2015-Jun-29 11:31N 41°51' W 013°57'1616.9
2015-Jun-29 10:33N 41°48' W 014°19'1716.6
2015-Jun-29 09:33N 41°44' W 014°40'1817.2
2015-Jun-29 08:32N 41°42' W 015°04'3617.3
2015-Jun-29 06:28N 41°35' W 015°51'3717.4
2015-Jun-29 04:19N 41°29' W 016°40'1317.1
2015-Jun-29 03:33N 41°26' W 016°57'2217.1
2015-Jun-29 02:16N 41°23' W 017°26'1417.2
2015-Jun-29 01:27N 41°21' W 017°44'1617.5
2015-Jun-29 00:33N 41°18' W 018°05'1917.4
2015-Jun-28 23:28N 41°15' W 018°29'10717.1
2015-Jun-28 17:12N 40°52' W 020°49'8117.2
2015-Jun-28 12:31N 40°31' W 022°31'2017.3
2015-Jun-28 11:20N 40°26' W 022°57'4017.7
2015-Jun-28 09:05N 40°15' W 023°47'17317.6
2015-Jun-27 23:14N 39°28' W 027°24'1218.2
2015-Jun-27 22:33N 39°25' W 027°39'1818.3
2015-Jun-27 21:33N 39°20' W 028°02'1818.5
2015-Jun-27 20:33N 39°15' W 028°25'1918.6
2015-Jun-27 19:33N 39°09' W 028°48'1818.4
2015-Jun-27 18:34N 39°05' W 029°11'1818.4
2015-Jun-27 17:33N 38°60' W 029°34'1818.0
2015-Jun-27 16:33N 38°56' W 029°56'1817.7
2015-Jun-27 15:33N 38°49' W 030°17'1818.3
2015-Jun-27 14:33N 38°42' W 030°39'1817.9
2015-Jun-27 13:33N 38°35' W 031°00'  
Track history (hours):
 
Tides and Currents Weather Stations Pressure Air Temp Water Temp Dewpoint Dewpoint Depression Visibility Wind Speed Wind Dir Waves Ship Positions

Grand Ruby

Last reported at 2015-Jul-05 04:33 UTC. Time now 2015-Jul-05 06:02 UTC.
Position N 53°32' E 005°17'.

Length 200 m; draft 9.4 m.

Type: Cargo ship. MMSI: 372399000.

Date/timePositionNaut miles runAvg speedWind from/ knotsBaromVisibWave heightAir tempDewpointWater temp
2015-Jul-05 04:33N 53°32' E 005°17'1515.0
2015-Jul-05 03:34N 53°27' E 004°54'1413.8
2015-Jul-05 02:34N 53°17' E 004°37'1515.0
2015-Jul-05 01:34N 53°04' E 004°26'1515.1
2015-Jul-05 00:34N 52°51' E 004°14'1515.1
2015-Jul-04 23:33N 52°39' E 003°57'1514.8
2015-Jul-04 22:34N 52°28' E 003°42'1514.7
2015-Jul-04 21:33N 52°15' E 003°30'1514.8
2015-Jul-04 20:33N 52°01' E 003°24'1414.3
2015-Jul-04 19:34N 51°49' E 003°12'1616.3
2015-Jul-04 18:34N 51°38' E 002°51'1615.5
2015-Jul-04 17:34N 51°23' E 002°45'1211.7
2015-Jul-04 16:33N 51°25' E 003°03'8 7.6
2015-Jul-04 15:33N 51°20' E 003°13'2 1.9
2015-Jul-04 14:34N 51°18' E 003°14'0 0.0
2015-Jul-04 13:31N 51°18' E 003°14'0 0.0
2015-Jul-04 12:31N 51°18' E 003°14'0 0.0
2015-Jul-04 11:31N 51°18' E 003°14'0 0.0
2015-Jul-04 10:31N 51°18' E 003°14'0 0.0
2015-Jul-04 09:31N 51°18' E 003°14'0 0.0
2015-Jul-04 08:34N 51°18' E 003°14'0 0.0
2015-Jul-04 07:31N 51°18' E 003°14'0 0.0
2015-Jul-04 06:31N 51°18' E 003°14'0 0.0
2015-Jul-04 05:31N 51°18' E 003°14'0 0.0
2015-Jul-04 04:31N 51°18' E 003°14'0 0.0
2015-Jul-04 03:31N 51°18' E 003°14'0 0.0
2015-Jul-04 02:31N 51°18' E 003°14'0 0.0
2015-Jul-04 01:31N 51°18' E 003°14'0 0.0
2015-Jul-04 00:31N 51°18' E 003°14'0 0.0
2015-Jul-03 23:31N 51°18' E 003°14'0 0.0
2015-Jul-03 22:31N 51°18' E 003°14'0 0.0
2015-Jul-03 21:31N 51°18' E 003°14'0 0.0
2015-Jul-03 20:34N 51°18' E 003°14'0 0.0
2015-Jul-03 19:34N 51°18' E 003°14'0 0.0
2015-Jul-03 18:31N 51°18' E 003°14'0 0.0
2015-Jul-03 17:34N 51°18' E 003°14'0 0.0
2015-Jul-03 16:34N 51°18' E 003°14'0 0.0
2015-Jul-03 15:31N 51°18' E 003°14'0 0.0
2015-Jul-03 14:28N 51°18' E 003°14'0 0.0
2015-Jul-03 13:34N 51°18' E 003°14'0 0.0
2015-Jul-03 12:31N 51°18' E 003°14'0 0.0
2015-Jul-03 11:31N 51°18' E 003°14'0 0.0
2015-Jul-03 10:34N 51°18' E 003°14'0 0.0
2015-Jul-03 09:31N 51°18' E 003°14'0 0.0
2015-Jul-03 08:31N 51°18' E 003°14'0 0.0
2015-Jul-03 07:31N 51°18' E 003°14'0 0.0
2015-Jul-03 06:31N 51°18' E 003°14'0 0.0
2015-Jul-03 05:34N 51°18' E 003°14'0 0.0
2015-Jul-03 04:34N 51°18' E 003°14'0 0.0
2015-Jul-03 03:31N 51°18' E 003°14'0 0.0
2015-Jul-03 02:31N 51°18' E 003°14'0 0.0
2015-Jul-03 01:31N 51°18' E 003°14'0 0.0
2015-Jul-03 00:31N 51°18' E 003°14'0 0.0
2015-Jul-02 23:31N 51°18' E 003°14'0 0.0
2015-Jul-02 22:28N 51°18' E 003°14'0 0.0
2015-Jul-02 21:31N 51°18' E 003°14'0 0.0
2015-Jul-02 20:31N 51°18' E 003°14'0 0.0
2015-Jul-02 19:31N 51°18' E 003°14'1 0.6
2015-Jul-02 18:33N 51°19' E 003°14'1 1.3
2015-Jul-02 17:33N 51°20' E 003°13'5 4.6
2015-Jul-02 16:34N 51°24' E 003°08'1515.2
2015-Jul-02 15:34N 51°23' E 002°44'1111.0
2015-Jul-02 14:34N 51°21' E 002°27'1717.0
2015-Jul-02 13:33N 51°13' E 002°03'1919.3
2015-Jul-02 12:33N 51°02' E 001°38'2020.0
2015-Jul-02 11:33N 50°44' E 001°22'2019.7
2015-Jul-02 10:33N 50°30' E 001°00'2118.1
2015-Jul-02 09:23N 50°23' E 000°29'1619.2
2015-Jul-02 08:33N 50°19' E 000°05'5618.6
2015-Jul-02 05:33N 50°12' W 001°22'1514.1
2015-Jul-02 04:31N 50°21' W 001°39'1515.7
2015-Jul-02 03:33N 50°23' W 002°03'1514.7
2015-Jul-02 02:34N 50°23' W 002°26'1514.5
2015-Jul-02 01:33N 50°23' W 002°49'1615.6
2015-Jul-02 00:33N 50°24' W 003°13'8 7.9
2015-Jul-01 23:34N 50°22' W 003°25'1010.2
2015-Jul-01 22:33N 50°13' W 003°30'1312.7
2015-Jul-01 21:33N 50°02' W 003°40'7116.9
2015-Jul-01 17:21N 49°07' W 004°50'5817.7
2015-Jul-01 14:06N 48°27' W 005°52'1018.4
2015-Jul-01 13:33N 48°18' W 005°59'1818.1
2015-Jul-01 12:34N 48°02' W 006°11'2317.3
2015-Jul-01 11:16N 47°42' W 006°27'1316.8
2015-Jul-01 10:30N 47°30' W 006°36'33110.5
2015-Jun-30 03:08N 42°14' W 008°50'2 4.2
2015-Jun-30 02:33N 42°14' W 008°53'6 5.8
2015-Jun-30 01:33N 42°18' W 008°58'10 9.5
2015-Jun-30 00:33N 42°20' W 009°11'1514.9
2015-Jun-29 23:33N 42°20' W 009°31'1716.9
2015-Jun-29 22:33N 42°20' W 009°54'1616.6
2015-Jun-29 21:34N 42°18' W 010°16'1716.5
2015-Jun-29 20:33N 42°15' W 010°38'1616.5
2015-Jun-29 19:33N 42°13' W 011°00'1716.4
2015-Jun-29 18:33N 42°10' W 011°23'1716.7
2015-Jun-29 17:33N 42°08' W 011°45'1616.6
2015-Jun-29 16:33N 42°05' W 012°06'1716.6
2015-Jun-29 15:33N 42°01' W 012°28'1616.4
2015-Jun-29 14:33N 41°58' W 012°50'5016.6
2015-Jun-29 11:31N 41°51' W 013°57'1616.9
2015-Jun-29 10:33N 41°48' W 014°19'1716.6
2015-Jun-29 09:33N 41°44' W 014°40'1817.2
2015-Jun-29 08:32N 41°42' W 015°04'3617.3
2015-Jun-29 06:28N 41°35' W 015°51'3717.4
2015-Jun-29 04:19N 41°29' W 016°40'1317.1
2015-Jun-29 03:33N 41°26' W 016°57'2217.1
2015-Jun-29 02:16N 41°23' W 017°26'1417.2
2015-Jun-29 01:27N 41°21' W 017°44'1617.5
2015-Jun-29 00:33N 41°18' W 018°05'1917.4
2015-Jun-28 23:28N 41°15' W 018°29'10717.1
2015-Jun-28 17:12N 40°52' W 020°49'8117.2
2015-Jun-28 12:31N 40°31' W 022°31'2017.3
2015-Jun-28 11:20N 40°26' W 022°57'4017.7
2015-Jun-28 09:05N 40°15' W 023°47'17317.6
2015-Jun-27 23:14N 39°28' W 027°24'1218.2
2015-Jun-27 22:33N 39°25' W 027°39'1818.3
2015-Jun-27 21:33N 39°20' W 028°02'1818.5
2015-Jun-27 20:33N 39°15' W 028°25'1918.6
2015-Jun-27 19:33N 39°09' W 028°48'1818.4
2015-Jun-27 18:34N 39°05' W 029°11'1818.4
2015-Jun-27 17:33N 38°60' W 029°34'1818.0
2015-Jun-27 16:33N 38°56' W 029°56'1817.7
2015-Jun-27 15:33N 38°49' W 030°17'1818.3
2015-Jun-27 14:33N 38°42' W 030°39'1817.9
2015-Jun-27 13:33N 38°35' W 031°00'  

Dump ship's entire track history